createdAt,value
2023-01-07T00:01:39.441Z,101694.59
2023-01-07T00:04:11.520Z,101698.38
2023-01-07T00:06:42.229Z,101699.34
2023-01-07T00:09:16.951Z,101686.25
2023-01-07T00:11:45.762Z,101682.63
2023-01-07T00:14:15.374Z,101682.09
2023-01-07T00:16:44.018Z,101685.53
2023-01-07T00:19:17.639Z,101690.31
2023-01-07T00:21:45.986Z,101684.72
2023-01-07T00:24:13.997Z,101680.50
2023-01-07T00:26:43.301Z,101683.66
2023-01-07T00:29:11.579Z,101682.31
2023-01-07T00:31:41.262Z,101681.66
2023-01-07T00:34:10.286Z,101684.91
2023-01-07T00:36:45.690Z,101686.25
2023-01-07T00:39:15.562Z,101675.94
2023-01-07T00:42:05.591Z,101676.50
2023-01-07T00:44:33.997Z,101677.56
2023-01-07T00:47:02.752Z,101673.72
2023-01-07T00:49:30.868Z,101672.16
2023-01-07T00:51:59.377Z,101665.84
2023-01-07T00:54:27.518Z,101664.84
2023-01-07T00:56:57.105Z,101666.38
2023-01-07T00:59:25.188Z,101667.88
2023-01-07T01:01:53.620Z,101663.44
2023-01-07T01:04:21.628Z,101661.84
2023-01-07T01:06:51.108Z,101660.34
2023-01-07T01:09:21.054Z,101670.34
2023-01-07T01:11:49.328Z,101670.06
2023-01-07T01:14:17.950Z,101666.66
2023-01-07T01:16:47.890Z,101661.16
2023-01-07T01:19:16.229Z,101658.53
2023-01-07T01:21:44.808Z,101670.53
2023-01-07T01:24:13.807Z,101669.97
2023-01-07T01:26:42.178Z,101668.16
2023-01-07T01:29:10.173Z,101666.88
2023-01-07T01:31:38.594Z,101666.66
2023-01-07T01:34:06.987Z,101665.81
2023-01-07T01:36:37.439Z,101664.84
2023-01-07T01:39:05.444Z,101660.25
2023-01-07T01:41:36.100Z,101665.56
2023-01-07T01:44:34.218Z,101671.72
2023-01-07T01:47:07.249Z,101661.31
2023-01-07T01:49:40.478Z,101660.09
2023-01-07T01:52:18.030Z,101658.63
2023-01-07T01:54:53.199Z,101659.44
2023-01-07T01:57:22.994Z,101666.28
2023-01-07T01:59:57.312Z,101657.06
2023-01-07T02:02:32.487Z,101658.22
2023-01-07T02:05:03.101Z,101657.09
2023-01-07T02:07:31.571Z,101654.94
2023-01-07T02:10:16.969Z,101653.91
2023-01-07T02:13:11.722Z,101657.63
2023-01-07T02:16:03.920Z,101650.38
2023-01-07T02:18:47.599Z,101657.84
2023-01-07T02:21:39.012Z,101647.38
2023-01-07T02:24:40.629Z,101651.69
2023-01-07T02:27:21.033Z,101653.53
2023-01-07T02:30:12.620Z,101651.09
2023-01-07T02:32:57.556Z,101653.25
2023-01-07T02:35:39.287Z,101645.28
2023-01-07T02:38:44.609Z,101648.72
2023-01-07T02:41:31.748Z,101644.50
2023-01-07T02:44:17.588Z,101633.78
2023-01-07T02:46:54.719Z,101630.88
2023-01-07T02:49:23.857Z,101630.28
2023-01-07T02:51:53.249Z,101629.44
2023-01-07T02:54:26.579Z,101634.34
2023-01-07T02:57:11.438Z,101627.69
2023-01-07T03:00:15.777Z,101627.00
2023-01-07T03:02:54.453Z,101626.81
2023-01-07T03:05:35.301Z,101623.44
2023-01-07T03:08:32.875Z,101627.69
2023-01-07T03:11:10.545Z,101630.03
2023-01-07T03:13:45.887Z,101623.63
2023-01-07T03:16:34.973Z,101625.53
2023-01-07T03:19:13.948Z,101623.66
2023-01-07T03:21:41.919Z,101621.88
2023-01-07T03:24:10.276Z,101627.75
2023-01-07T03:26:46.827Z,101623.38
2023-01-07T03:29:18.152Z,101622.34
2023-01-07T03:31:57.018Z,101621.28
2023-01-07T03:34:28.803Z,101620.28
2023-01-07T03:37:01.143Z,101622.38
2023-01-07T03:39:33.509Z,101625.50
2023-01-07T03:42:25.099Z,101616.41
2023-01-07T03:44:53.915Z,101621.69
2023-01-07T03:47:26.386Z,101612.59
2023-01-07T03:49:54.759Z,101619.03
2023-01-07T03:52:22.941Z,101615.88
2023-01-07T03:54:51.259Z,101615.88
2023-01-07T03:57:19.336Z,101614.50
2023-01-07T03:59:47.701Z,101613.16
2023-01-07T04:02:16.368Z,101604.38
2023-01-07T04:04:45.963Z,101608.09
2023-01-07T04:07:14.233Z,101594.31
2023-01-07T04:09:42.533Z,101606.50
2023-01-07T04:12:10.937Z,101603.66
2023-01-07T04:14:42.125Z,101606.19
2023-01-07T04:17:10.119Z,101605.84
2023-01-07T04:19:40.041Z,101601.03
2023-01-07T04:22:10.962Z,101601.44
2023-01-07T04:24:40.522Z,101602.81
2023-01-07T04:27:09.573Z,101596.19
2023-01-07T04:29:38.220Z,101600.53
2023-01-07T04:32:06.274Z,101598.53
2023-01-07T04:34:35.212Z,101598.06
2023-01-07T04:37:04.482Z,101602.38
2023-01-07T04:39:33.958Z,101597.03
2023-01-07T04:42:01.981Z,101596.72
2023-01-07T04:44:33.261Z,101598.84
2023-01-07T04:47:01.190Z,101601.69
2023-01-07T04:49:29.460Z,101601.25
2023-01-07T04:51:59.058Z,101596.13
2023-01-07T04:54:28.179Z,101593.97
2023-01-07T04:56:57.141Z,101599.78
2023-01-07T04:59:27.158Z,101605.56
2023-01-07T05:01:55.321Z,101601.50
2023-01-07T05:04:25.383Z,101594.63
2023-01-07T05:06:53.558Z,101601.91
2023-01-07T05:09:22.610Z,101598.41
2023-01-07T05:11:52.340Z,101598.00
2023-01-07T05:14:20.729Z,101608.31
2023-01-07T05:16:52.576Z,101603.78
2023-01-07T05:19:22.640Z,101603.09
2023-01-07T05:21:50.719Z,101610.50
2023-01-07T05:24:20.949Z,101603.94
2023-01-07T05:26:49.041Z,101612.50
2023-01-07T05:29:19.618Z,101605.63
2023-01-07T05:31:48.886Z,101602.69
2023-01-07T05:34:18.837Z,101606.50
2023-01-07T05:36:47.209Z,101611.28
2023-01-07T05:39:17.100Z,101611.19
2023-01-07T05:41:45.310Z,101614.72
2023-01-07T05:44:13.775Z,101609.78
2023-01-07T05:46:41.817Z,101612.53
2023-01-07T05:49:10.099Z,101613.00
2023-01-07T05:51:38.013Z,101604.50
2023-01-07T05:54:07.578Z,101610.16
2023-01-07T05:56:35.670Z,101605.28
2023-01-07T05:59:04.252Z,101605.47
2023-01-07T06:01:32.539Z,101612.13
2023-01-07T06:04:02.108Z,101601.41
2023-01-07T06:06:30.122Z,101613.06
2023-01-07T06:08:58.339Z,101606.75
2023-01-07T06:11:26.279Z,101610.94
2023-01-07T06:13:55.661Z,101613.16
2023-01-07T06:16:23.631Z,101615.47
2023-01-07T06:18:51.864Z,101615.31
2023-01-07T06:21:21.000Z,101618.63
2023-01-07T06:23:49.272Z,101614.16
2023-01-07T06:26:17.182Z,101608.13
2023-01-07T06:28:45.796Z,101603.97
2023-01-07T06:31:14.090Z,101610.25
2023-01-07T06:33:42.400Z,101606.81
2023-01-07T06:36:10.503Z,101613.91
2023-01-07T06:38:38.829Z,101609.84
2023-01-07T06:41:07.022Z,101610.34
2023-01-07T06:43:35.349Z,101606.34
2023-01-07T06:46:03.711Z,101607.47
2023-01-07T06:48:32.068Z,101606.00
2023-01-07T06:51:00.120Z,101614.81
2023-01-07T06:53:29.530Z,101611.28
2023-01-07T06:55:57.566Z,101606.53
2023-01-07T06:58:25.800Z,101609.59
2023-01-07T07:00:53.866Z,101606.25
2023-01-07T07:03:22.235Z,101611.16
2023-01-07T07:05:50.211Z,101612.34
2023-01-07T07:08:18.620Z,101617.34
2023-01-07T07:10:46.640Z,101618.88
2023-01-07T07:13:16.130Z,101617.69
2023-01-07T07:15:44.139Z,101628.81
2023-01-07T07:18:12.418Z,101615.16
2023-01-07T07:20:40.312Z,101617.84
2023-01-07T07:23:08.728Z,101625.03
2023-01-07T07:25:36.658Z,101623.06
2023-01-07T07:28:05.428Z,101613.88
2023-01-07T07:30:46.655Z,101616.63
2023-01-07T07:33:19.669Z,101617.75
2023-01-07T07:35:48.425Z,101615.75
2023-01-07T07:38:18.206Z,101612.47
2023-01-07T07:40:47.453Z,101614.84
2023-01-07T07:43:16.201Z,101621.28
2023-01-07T07:45:45.062Z,101625.28
2023-01-07T07:48:15.509Z,101624.88
2023-01-07T07:50:43.592Z,101626.03
2023-01-07T07:53:11.940Z,101626.25
2023-01-07T07:55:40.482Z,101622.81
2023-01-07T07:58:08.827Z,101624.34
2023-01-07T08:00:36.847Z,101625.53
2023-01-07T08:03:05.608Z,101624.63
2023-01-07T08:05:33.900Z,101618.19
2023-01-07T08:08:02.542Z,101617.34
2023-01-07T08:10:30.616Z,101617.78
2023-01-07T08:12:59.857Z,101620.56
2023-01-07T08:15:27.826Z,101621.63
2023-01-07T08:18:01.686Z,101614.22
2023-01-07T08:20:30.270Z,101619.91
2023-01-07T08:23:00.715Z,101626.81
2023-01-07T08:25:30.245Z,101627.56
2023-01-07T08:27:59.617Z,101627.03
2023-01-07T08:30:28.746Z,101627.25
2023-01-07T08:32:57.879Z,101627.63
2023-01-07T08:35:26.235Z,101624.59
2023-01-07T08:38:09.919Z,101636.25
2023-01-07T08:40:38.479Z,101631.25
2023-01-07T08:43:09.094Z,101627.88
2023-01-07T08:45:37.290Z,101632.88
2023-01-07T08:48:07.741Z,101629.91
2023-01-07T08:50:35.685Z,101624.03
2023-01-07T08:53:04.038Z,101630.78
2023-01-07T08:55:32.016Z,101634.78
2023-01-07T08:58:01.357Z,101633.16
2023-01-07T09:00:29.352Z,101626.97
2023-01-07T09:02:58.659Z,101639.84
2023-01-07T09:05:26.638Z,101640.81
2023-01-07T09:07:55.826Z,101640.81
2023-01-07T09:10:24.918Z,101636.13
2023-01-07T09:12:53.281Z,101643.19
2023-01-07T09:15:21.559Z,101642.47
2023-01-07T09:17:49.980Z,101641.88
2023-01-07T09:20:18.213Z,101637.22
2023-01-07T09:22:47.241Z,101639.38
2023-01-07T09:25:15.292Z,101639.19
2023-01-07T09:27:43.772Z,101641.47
2023-01-07T09:30:12.597Z,101629.69
2023-01-07T09:33:06.295Z,101642.50
2023-01-07T09:35:34.368Z,101635.22
2023-01-07T09:38:02.668Z,101638.25
2023-01-07T09:40:35.539Z,101640.34
2023-01-07T09:44:00.176Z,101641.50
2023-01-07T09:46:18.787Z,101637.75
2023-01-07T09:48:51.957Z,101633.00
2023-01-07T09:51:30.943Z,101632.59
2023-01-07T09:54:03.588Z,101640.28
2023-01-07T09:56:37.157Z,101645.00
2023-01-07T09:59:06.687Z,101637.47
2023-01-07T10:01:47.271Z,101631.97
2023-01-07T10:04:38.484Z,101633.28
2023-01-07T10:07:12.388Z,101629.75
2023-01-07T10:10:14.767Z,101627.88
2023-01-07T10:12:45.535Z,101622.13
2023-01-07T10:15:52.905Z,101623.91
2023-01-07T10:18:31.767Z,101611.50
2023-01-07T10:21:06.087Z,101612.22
2023-01-07T10:23:57.849Z,101601.59
2023-01-07T10:26:36.838Z,101604.22
2023-01-07T10:29:16.573Z,101614.25
2023-01-07T10:31:47.099Z,101603.47
2023-01-07T10:34:20.204Z,101603.03
2023-01-07T10:37:06.328Z,101598.47
2023-01-07T10:40:12.241Z,101601.88
2023-01-07T10:43:02.217Z,101594.72
2023-01-07T10:45:46.572Z,101587.44
2023-01-07T10:48:51.551Z,101585.44
2023-01-07T10:51:40.483Z,101576.53
2023-01-07T10:54:39.970Z,101576.84
2023-01-07T10:57:19.566Z,101571.63
2023-01-07T10:59:51.603Z,101569.13
2023-01-07T11:02:23.654Z,101564.66
2023-01-07T11:04:55.649Z,101561.03
2023-01-07T11:07:34.678Z,101564.97
2023-01-07T11:10:05.768Z,101559.03
2023-01-07T11:12:45.401Z,101559.22
2023-01-07T11:15:26.449Z,101553.47
2023-01-07T11:18:02.687Z,101546.03
2023-01-07T11:20:54.795Z,101544.94
2023-01-07T11:23:42.861Z,101538.16
2023-01-07T11:26:32.216Z,101536.09
2023-01-07T11:29:15.262Z,101538.91
2023-01-07T11:31:58.867Z,101525.66
2023-01-07T11:34:51.309Z,101526.13
2023-01-07T11:37:45.028Z,101517.63
2023-01-07T11:40:13.021Z,101514.28
2023-01-07T11:42:53.291Z,101515.41
2023-01-07T11:45:27.539Z,101510.38
2023-01-07T11:48:01.065Z,101504.91
2023-01-07T11:50:44.632Z,101505.88
2023-01-07T11:53:16.021Z,101499.50
2023-01-07T11:56:14.677Z,101490.75
2023-01-07T11:58:45.396Z,101488.13
2023-01-07T12:01:22.803Z,101490.53
2023-01-07T12:03:56.827Z,101477.69
2023-01-07T12:06:34.337Z,101478.69
2023-01-07T12:09:22.326Z,101472.59
2023-01-07T12:11:51.599Z,101477.53
2023-01-07T12:14:35.150Z,101474.38
2023-01-07T12:17:17.819Z,101468.94
2023-01-07T12:20:10.328Z,101472.59
2023-01-07T12:23:09.749Z,101461.41
2023-01-07T12:26:05.934Z,101460.75
2023-01-07T12:29:14.112Z,101453.91
2023-01-07T12:32:14.000Z,101449.34
2023-01-07T12:35:15.126Z,101453.13
2023-01-07T12:37:58.854Z,101447.59
2023-01-07T12:40:50.114Z,101440.03
2023-01-07T12:43:21.350Z,101435.78
2023-01-07T12:45:56.835Z,101437.41
2023-01-07T12:48:37.060Z,101442.41
2023-01-07T12:51:14.868Z,101434.19
2023-01-07T12:53:49.909Z,101432.81
2023-01-07T12:56:33.353Z,101435.19
2023-01-07T12:59:46.282Z,101432.09
2023-01-07T13:02:13.658Z,101425.16
2023-01-07T13:05:20.538Z,101423.75
2023-01-07T13:07:55.296Z,101422.03
2023-01-07T13:10:31.179Z,101419.88
2023-01-07T13:13:04.165Z,101418.72
2023-01-07T13:15:41.148Z,101416.50
2023-01-07T13:18:11.975Z,101419.19
2023-01-07T13:20:59.287Z,101410.84
2023-01-07T13:24:07.589Z,101419.16
2023-01-07T13:27:03.176Z,101409.97
2023-01-07T13:29:58.946Z,101406.44
2023-01-07T13:32:49.889Z,101406.38
2023-01-07T13:35:54.497Z,101398.34
2023-01-07T13:38:42.827Z,101396.41
2023-01-07T13:41:25.997Z,101395.88
2023-01-07T13:44:13.917Z,101394.47
2023-01-07T13:46:45.674Z,101392.91
2023-01-07T13:49:33.004Z,101401.75
2023-01-07T13:52:22.261Z,101407.41
2023-01-07T13:54:50.702Z,101403.72
2023-01-07T13:57:24.606Z,101397.97
2023-01-07T13:59:57.027Z,101402.16
2023-01-07T14:02:29.899Z,101402.69
2023-01-07T14:05:10.420Z,101391.28
2023-01-07T14:08:07.918Z,101396.00
2023-01-07T14:10:38.304Z,101394.19
2023-01-07T14:13:27.307Z,101399.00
2023-01-07T14:16:10.420Z,101388.91
2023-01-07T14:19:02.347Z,101392.16
2023-01-07T14:21:57.367Z,101402.88
2023-01-07T14:24:51.815Z,101405.72
2023-01-07T14:27:42.632Z,101401.25
2023-01-07T14:30:27.728Z,101399.94
2023-01-07T14:33:02.875Z,101404.25
2023-01-07T14:35:37.841Z,101405.56
2023-01-07T14:38:30.461Z,101415.25
2023-01-07T14:41:13.548Z,101406.34
2023-01-07T14:43:42.229Z,101411.00
2023-01-07T14:46:46.442Z,101409.53
2023-01-07T14:49:14.740Z,101414.66
2023-01-07T14:52:24.257Z,101411.00
2023-01-07T14:55:07.199Z,101412.97
2023-01-07T14:57:46.859Z,101412.53
2023-01-07T15:00:54.110Z,101414.72
2023-01-07T15:03:38.549Z,101406.09
2023-01-07T15:06:18.958Z,101401.34
2023-01-07T15:09:12.384Z,101403.56
2023-01-07T15:12:02.656Z,101402.22
2023-01-07T15:15:02.867Z,101404.91
2023-01-07T15:17:32.537Z,101400.06
2023-01-07T15:20:04.992Z,101397.16
2023-01-07T15:22:46.459Z,101399.19
2023-01-07T15:25:25.045Z,101400.31
2023-01-07T15:28:03.935Z,101394.53
2023-01-07T15:30:53.765Z,101397.16
2023-01-07T15:34:00.107Z,101398.16
2023-01-07T15:36:30.473Z,101391.38
2023-01-07T15:39:02.087Z,101393.38
2023-01-07T15:41:36.143Z,101394.19
2023-01-07T15:44:23.158Z,101390.50
2023-01-07T15:46:51.295Z,101385.31
2023-01-07T15:49:22.971Z,101385.00
2023-01-07T15:51:56.912Z,101380.25
2023-01-07T15:54:39.759Z,101377.44
2023-01-07T15:57:16.039Z,101387.75
2023-01-07T15:59:54.750Z,101383.38
2023-01-07T16:02:27.963Z,101381.41
2023-01-07T16:05:01.210Z,101386.53
2023-01-07T16:07:34.088Z,101385.38
2023-01-07T16:10:03.910Z,101389.47
2023-01-07T16:12:37.755Z,101390.47
2023-01-07T16:15:25.291Z,101399.34
2023-01-07T16:17:59.318Z,101393.13
2023-01-07T16:20:32.931Z,101396.59
2023-01-07T16:23:08.640Z,101388.41
2023-01-07T16:26:03.556Z,101386.25
2023-01-07T16:28:50.409Z,101393.41
2023-01-07T16:31:22.878Z,101388.06
2023-01-07T16:33:54.312Z,101395.06
2023-01-07T16:36:37.390Z,101389.88
2023-01-07T16:39:13.718Z,101393.22
2023-01-07T16:41:42.998Z,101385.28
2023-01-07T16:44:44.416Z,101387.16
2023-01-07T16:47:22.005Z,101391.41
2023-01-07T16:49:58.069Z,101379.59
2023-01-07T16:52:33.703Z,101376.94
2023-01-07T16:55:01.859Z,101376.06
2023-01-07T16:57:56.500Z,101380.25
2023-01-07T17:00:24.530Z,101376.50
2023-01-07T17:02:59.875Z,101374.34
2023-01-07T17:05:32.633Z,101378.56
2023-01-07T17:08:16.748Z,101380.69
2023-01-07T17:10:56.607Z,101378.81
2023-01-07T17:13:25.087Z,101373.81
2023-01-07T17:16:15.730Z,101377.41
2023-01-07T17:18:44.121Z,101379.59
2023-01-07T17:21:30.685Z,101379.09
2023-01-07T17:23:59.153Z,101373.47
2023-01-07T17:26:29.403Z,101384.94
2023-01-07T17:29:13.432Z,101380.22
2023-01-07T17:31:42.257Z,101391.91
2023-01-07T17:34:12.674Z,101392.84
2023-01-07T17:36:40.735Z,101380.53
2023-01-07T17:39:09.003Z,101381.66
2023-01-07T17:41:56.833Z,101381.09
2023-01-07T17:44:25.583Z,101382.81
2023-01-07T17:46:53.562Z,101382.97
2023-01-07T17:49:22.947Z,101387.06
2023-01-07T17:51:53.246Z,101385.34
2023-01-07T17:54:26.108Z,101384.63
2023-01-07T17:56:54.213Z,101387.44
2023-01-07T17:59:23.771Z,101384.13
2023-01-07T18:01:55.241Z,101383.13
2023-01-07T18:04:23.841Z,101381.53
2023-01-07T18:06:51.848Z,101381.38
2023-01-07T18:09:20.187Z,101384.53
2023-01-07T18:12:06.803Z,101384.06
2023-01-07T18:14:35.135Z,101381.66
2023-01-07T18:17:03.599Z,101381.31
2023-01-07T18:19:33.422Z,101383.47
2023-01-07T18:22:01.545Z,101383.59
2023-01-07T18:24:29.794Z,101379.22
2023-01-07T18:26:57.741Z,101386.06
2023-01-07T18:29:26.044Z,101383.19
2023-01-07T18:31:54.126Z,101374.31
2023-01-07T18:34:23.574Z,101377.34
2023-01-07T18:36:52.454Z,101372.78
2023-01-07T18:39:20.817Z,101383.47
2023-01-07T18:41:50.874Z,101381.31
2023-01-07T18:44:21.382Z,101384.00
2023-01-07T18:46:49.366Z,101389.66
2023-01-07T18:49:17.709Z,101386.59
2023-01-07T18:51:47.214Z,101380.06
2023-01-07T18:54:17.130Z,101374.41
2023-01-07T18:56:46.260Z,101375.66
2023-01-07T18:59:14.931Z,101376.41
2023-01-07T19:01:43.418Z,101376.53
2023-01-07T19:04:11.962Z,101367.53
2023-01-07T19:06:39.975Z,101369.50
2023-01-07T19:09:08.436Z,101365.94
2023-01-07T19:11:38.672Z,101371.44
2023-01-07T19:14:07.258Z,101367.66
2023-01-07T19:16:37.721Z,101373.59
2023-01-07T19:19:07.516Z,101373.31
2023-01-07T19:21:35.826Z,101373.66
2023-01-07T19:24:04.813Z,101368.13
2023-01-07T19:26:34.194Z,101361.63
2023-01-07T19:29:03.517Z,101358.72
2023-01-07T19:31:31.462Z,101358.44
2023-01-07T19:34:04.737Z,101352.66
2023-01-07T19:36:33.041Z,101355.13
2023-01-07T19:39:02.710Z,101344.19
2023-01-07T19:41:30.698Z,101353.78
2023-01-07T19:44:01.534Z,101356.22
2023-01-07T19:46:29.625Z,101351.81
2023-01-07T19:48:57.872Z,101354.78
2023-01-07T19:51:26.656Z,101351.59
2023-01-07T19:53:54.914Z,101356.50
2023-01-07T19:56:23.787Z,101358.31
2023-01-07T19:58:54.336Z,101355.50
2023-01-07T20:01:26.734Z,101358.19
2023-01-07T20:03:56.894Z,101363.66
2023-01-07T20:06:30.074Z,101366.25
2023-01-07T20:08:59.055Z,101360.38
2023-01-07T20:11:27.588Z,101370.34
2023-01-07T20:13:55.822Z,101357.78
2023-01-07T20:16:24.438Z,101361.13
2023-01-07T20:18:55.670Z,101362.75
2023-01-07T20:21:28.608Z,101359.81
2023-01-07T20:23:57.040Z,101365.00
2023-01-07T20:26:30.721Z,101361.75
2023-01-07T20:29:00.450Z,101364.50
2023-01-07T20:31:30.350Z,101361.69
2023-01-07T20:33:59.951Z,101357.44
2023-01-07T20:36:31.074Z,101357.63
2023-01-07T20:39:06.235Z,101355.47
2023-01-07T20:41:35.509Z,101353.94
2023-01-07T20:44:06.481Z,101358.44
2023-01-07T20:46:39.568Z,101356.28
2023-01-07T20:49:08.908Z,101351.91
2023-01-07T20:51:37.164Z,101352.91
2023-01-07T20:54:06.357Z,101352.88
2023-01-07T20:56:35.059Z,101352.53
2023-01-07T20:59:04.422Z,101349.63
2023-01-07T21:01:32.557Z,101339.63
2023-01-07T21:04:02.669Z,101337.31
2023-01-07T21:06:31.588Z,101340.84
2023-01-07T21:09:00.296Z,101333.25
2023-01-07T21:11:28.361Z,101328.22
2023-01-07T21:13:56.822Z,101325.13
2023-01-07T21:16:25.789Z,101333.13
2023-01-07T21:18:55.333Z,101333.38
2023-01-07T21:21:25.621Z,101331.25
2023-01-07T21:23:54.527Z,101328.16
2023-01-07T21:26:23.750Z,101326.72
2023-01-07T21:28:56.269Z,101323.84
2023-01-07T21:31:26.409Z,101325.75
2023-01-07T21:33:56.658Z,101314.09
2023-01-07T21:36:26.527Z,101316.34
2023-01-07T21:38:59.052Z,101319.69
2023-01-07T21:41:28.653Z,101316.34
2023-01-07T21:43:57.185Z,101316.28
2023-01-07T21:46:25.216Z,101303.38
2023-01-07T21:48:55.153Z,101298.31
2023-01-07T21:51:25.777Z,101305.25
2023-01-07T21:53:57.938Z,101301.56
2023-01-07T21:56:33.179Z,101300.91
2023-01-07T21:59:01.624Z,101299.47
2023-01-07T22:01:30.055Z,101308.63
2023-01-07T22:03:59.881Z,101304.03
2023-01-07T22:06:31.028Z,101311.50
2023-01-07T22:09:02.314Z,101302.00
2023-01-07T22:11:30.300Z,101311.44
2023-01-07T22:14:00.636Z,101304.16
2023-01-07T22:16:31.023Z,101300.28
2023-01-07T22:19:01.597Z,101298.09
2023-01-07T22:21:29.852Z,101302.03
2023-01-07T22:23:58.197Z,101299.69
2023-01-07T22:26:26.194Z,101296.44
2023-01-07T22:29:02.968Z,101301.91
2023-01-07T22:31:34.121Z,101305.22
2023-01-07T22:34:03.347Z,101298.47
2023-01-07T22:36:40.070Z,101303.50
2023-01-07T22:39:14.543Z,101309.78
2023-01-07T22:41:42.978Z,101312.69
2023-01-07T22:44:26.440Z,101312.69
2023-01-07T22:46:55.094Z,101306.56
2023-01-07T22:49:26.987Z,101297.53
2023-01-07T22:51:55.525Z,101282.31
2023-01-07T22:54:25.339Z,101286.34
2023-01-07T22:56:54.014Z,101278.44
2023-01-07T22:59:22.306Z,101271.00
2023-01-07T23:01:50.287Z,101256.69
2023-01-07T23:04:19.662Z,101262.19
2023-01-07T23:06:47.631Z,101262.75
2023-01-07T23:09:15.938Z,101243.09
2023-01-07T23:11:50.711Z,101248.16
2023-01-07T23:14:24.026Z,101255.28
2023-01-07T23:16:52.769Z,101262.63
2023-01-07T23:19:22.240Z,101261.06
2023-01-07T23:21:53.836Z,101247.63
2023-01-07T23:24:24.586Z,101243.16
2023-01-07T23:26:54.455Z,101239.34
2023-01-07T23:29:23.109Z,101242.56
2023-01-07T23:31:51.650Z,101231.88
2023-01-07T23:34:20.030Z,101220.69
2023-01-07T23:36:47.979Z,101225.31
2023-01-07T23:39:17.443Z,101209.03
2023-01-07T23:41:45.887Z,101224.25
2023-01-07T23:44:14.392Z,101214.03
2023-01-07T23:46:42.292Z,101208.84
2023-01-07T23:49:10.610Z,101214.09
2023-01-07T23:51:40.498Z,101211.50
2023-01-07T23:54:10.211Z,101204.78
2023-01-07T23:56:38.097Z,101201.34
2023-01-07T23:59:07.416Z,101232.38
